Time;durP1;ratioP1;P1;durP2;ratioP2;P2;SDS_P1;SDS_P2;PMS_P1;PMS_P2;Temp;Humidity;BMP_temperature;BMP_pressure;BME280_temperature;BME280_humidity;BME280_pressure;Samples;Min_cycle;Max_cycle;Signal;HPM_P1;HPM_P2
2023/02/20 00:00:31;;;;;;;;;;;;;;;;;;5137110;27;19950;-68
2023/02/20 00:02:57;;;;;;;;;;;;;;;;;;5137126;27;19956;-68
2023/02/20 00:05:23;;;;;;;;;;;;;;;;;;5137015;27;19965;-69
2023/02/20 00:07:49;;;;;;;;;;;;;;;;;;5137534;27;19950;-68
2023/02/20 00:10:15;;;;;;;;;;;;;;;;;;5137032;27;19986;-68
2023/02/20 00:12:41;;;;;;;;;;;;;;;;;;5137102;27;20000;-68
2023/02/20 00:15:07;;;;;;;;;;;;;;;;;;5136958;27;19998;-68
2023/02/20 00:17:33;;;;;;;;;;;;;;;;;;5136705;27;19946;-68
2023/02/20 00:19:59;;;;;;;;;;;;;;;;;;5137052;27;19954;-68
2023/02/20 00:22:25;;;;;;;;;;;;;;;;;;5137277;27;20309;-68
2023/02/20 00:24:51;;;;;;;;;;;;;;;;;;5136868;27;20005;-68
2023/02/20 00:27:17;;;;;;;;;;;;;;;;;;5136636;27;19983;-69
2023/02/20 00:29:43;;;;;;;;;;;;;;;;;;5136532;27;20001;-68
2023/02/20 00:32:08;;;;;;;;;;;;;;;;;;5136513;27;19973;-69
2023/02/20 00:34:34;;;;;;;;;;;;;;;;;;5136490;27;19946;-68
2023/02/20 00:37:00;;;;;;;;;;;;;;;;;;5136689;27;19993;-67
2023/02/20 00:39:28;;;;;;;;;;;;;;;;;;5136639;27;19958;-68
2023/02/20 00:41:55;;;;;;;;;;;;;;;;;;5136643;27;20280;-67
2023/02/20 00:44:21;;;;;;;;;;;;;;;;;;5136472;27;19958;-68
2023/02/20 00:46:47;;;;;;;;;;;;;;;;;;5136238;27;20434;-69
2023/02/20 00:49:12;;;;;;;;;;;;;;;;;;5136481;27;19945;-68
2023/02/20 00:51:38;;;;;;;;;;;;;;;;;;5136132;27;20318;-68
2023/02/20 00:54:04;;;;;;;;;;;;;;;;;;5136090;27;20034;-68
2023/02/20 00:56:30;;;;;;;;;;;;;;;;;;5136301;27;19958;-69
2023/02/20 00:58:56;;;;;;;;;;;;;;;;;;5136020;27;20389;-68
2023/02/20 01:01:22;;;;;;;;;;;;;;;;;;5135920;27;20334;-68
2023/02/20 01:03:48;;;;;;;;;;;;;;;;;;5135836;27;20017;-69
2023/02/20 01:06:14;;;;;;;;;;;;;;;;;;5135775;27;19969;-68
2023/02/20 01:08:40;;;;;;;;;;;;;;;;;;5136054;27;19949;-68
2023/02/20 01:11:06;;;;;;;;;;;;;;;;;;5135642;27;19993;-68
2023/02/20 01:13:31;;;;;;;;;;;;;;;;;;5135936;27;20002;-68
2023/02/20 01:15:57;;;;;;;;;;;;;;;;;;5135602;27;19996;-68
2023/02/20 01:18:23;;;;;;;;;;;;;;;;;;5135638;27;19980;-69
2023/02/20 01:20:49;;;;;;;;;;;;;;;;;;5135877;27;19953;-67
2023/02/20 01:23:15;;;;;;;;;;;;;;;;;;5135496;27;19956;-69
2023/02/20 01:25:41;;;;;;;;;;;;;;;;;;5135407;27;19972;-68
2023/02/20 01:28:07;;;;;;;;;;;;;;;;;;5135657;27;19946;-69
2023/02/20 01:30:33;;;;;;;;;;;;;;;;;;5134960;27;19953;-69
2023/02/20 01:32:59;;;;;;;;;;;;;;;;;;5135374;27;19949;-68
2023/02/20 01:35:29;;;;;;;;;;;;;;;;;;5135592;27;20319;-68
2023/02/20 01:37:55;;;;;;;;;;;;;;;;;;5135583;27;19954;-67
2023/02/20 01:40:21;;;;;;;;;;;;;;;;;;5135488;27;19949;-68
2023/02/20 01:42:47;;;;;;;;;;;;;;;;;;5135173;27;19956;-68
2023/02/20 01:45:13;;;;;;;;;;;;;;;;;;5134983;27;19966;-68
2023/02/20 01:47:39;;;;;;;;;;;;;;;;;;5135086;27;19951;-68
2023/02/20 01:50:06;;;;;;;;;;;;;;;;;;5135330;27;19944;-68
2023/02/20 01:52:32;;;;;;;;;;;;;;;;;;5134912;27;19955;-68
2023/02/20 01:54:58;;;;;;;;;;;;;;;;;;5135212;27;19948;-68
2023/02/20 01:57:24;;;;;;;;;;;;;;;;;;5134958;27;19951;-69
2023/02/20 01:59:50;;;;;;;;;;;;;;;;;;5135503;27;20441;-69
2023/02/20 02:02:16;;;;;;;;;;;;;;;;;;5134864;27;20178;-67
2023/02/20 02:04:42;;;;;;;;;;;;;;;;;;5134762;27;19970;-68
2023/02/20 02:07:08;;;;;;;;;;;;;;;;;;5134740;27;19954;-68
2023/02/20 02:09:33;;;;;;;;;;;;;;;;;;5134596;27;19957;-69
2023/02/20 02:11:59;;;;;;;;;;;;;;;;;;5135334;27;19962;-68
2023/02/20 02:14:25;;;;;;;;;;;;;;;;;;5134623;27;19965;-69
2023/02/20 02:16:51;;;;;;;;;;;;;;;;;;5135264;27;19995;-68
2023/02/20 02:19:17;;;;;;;;;;;;;;;;;;5134914;28;19986;-68
2023/02/20 02:21:43;;;;;;;;;;;;;;;;;;5134923;28;20405;-68
2023/02/20 02:24:09;;;;;;;;;;;;;;;;;;5134628;28;19946;-68
2023/02/20 02:26:35;;;;;;;;;;;;;;;;;;5134789;28;20488;-68
2023/02/20 02:29:00;;;;;;;;;;;;;;;;;;5134579;28;19951;-68
2023/02/20 02:31:26;;;;;;;;;;;;;;;;;;5134842;28;19957;-70
2023/02/20 02:33:52;;;;;;;;;;;;;;;;;;5134854;28;20394;-69
2023/02/20 02:36:18;;;;;;;;;;;;;;;;;;5134547;28;20042;-70
2023/02/20 02:38:44;;;;;;;;;;;;;;;;;;5134529;28;20386;-71
2023/02/20 02:41:10;;;;;;;;;;;;;;;;;;5136683;27;19958;-70
2023/02/20 02:43:36;;;;;;;;;;;;;;;;;;5139199;27;20322;-70
2023/02/20 02:46:02;;;;;;;;;;;;;;;;;;5138508;27;19970;-69
2023/02/20 02:48:28;;;;;;;;;;;;;;;;;;5138801;27;20092;-69
2023/02/20 02:50:53;;;;;;;;;;;;;;;;;;5138496;27;19955;-68
2023/02/20 02:53:19;;;;;;;;;;;;;;;;;;5139036;27;20002;-70
2023/02/20 02:55:45;;;;;;;;;;;;;;;;;;5138686;27;20036;-69
2023/02/20 02:58:11;;;;;;;;;;;;;;;;;;5138365;27;19944;-69
2023/02/20 03:00:37;;;;;;;;;;;;;;;;;;5138329;27;19949;-69
2023/02/20 03:03:03;;;;;;;;;;;;;;;;;;5138560;27;19946;-69
2023/02/20 03:05:39;;;;;;;;;;;;;;;;;;5138114;27;20424;-69
2023/02/20 03:08:12;;;;;;;;;;;;;;;;;;5138172;27;20325;-69
2023/02/20 03:10:38;;;;;;;;;;;;;;;;;;5138255;27;20354;-69
2023/02/20 03:13:04;;;;;;;;;;;;;;;;;;5137939;27;19949;-69
2023/02/20 03:15:34;;;;;;;;;;;;;;;;;;5138246;27;19966;-68
2023/02/20 03:18:09;;;;;;;;;;;;;;;;;;5137171;27;21394;-69
2023/02/20 03:20:35;;;;;;;;;;;;;;;;;;5119306;27;19955;-69
2023/02/20 03:23:01;;;;;;;;;;;;;;;;;;5138458;27;20394;-69
2023/02/20 03:25:27;;;;;;;;;;;;;;;;;;5138028;27;19996;-69
2023/02/20 03:27:53;;;;;;;;;;;;;;;;;;5137769;27;20029;-69
2023/02/20 03:30:19;;;;;;;;;;;;;;;;;;5137724;27;19982;-68
2023/02/20 03:43:43;;;;;;;;;;;;;;;;;;5137269;27;20046;-69
2023/02/20 03:46:10;;;;;;;;;;;;;;;;;;5137330;27;20446;-69
2023/02/20 03:48:36;;;;;;;;;;;;;;;;;;5137395;27;19951;-70
2023/02/20 03:51:02;;;;;;;;;;;;;;;;;;5137605;27;20045;-69
2023/02/20 03:53:28;;;;;;;;;;;;;;;;;;5136811;27;19955;-69
2023/02/20 03:55:53;;;;;;;;;;;;;;;;;;5137265;27;19951;-69
2023/02/20 03:58:21;;;;;;;;;;;;;;;;;;5137494;27;19955;-69
2023/02/20 04:00:47;;;;;;;;;;;;;;;;;;5137405;27;20397;-69
2023/02/20 04:03:13;;;;;;;;;;;;;;;;;;5137386;27;19951;-69
2023/02/20 04:05:39;;;;;;;;;;;;;;;;;;5137219;27;20026;-69
2023/02/20 04:08:05;;;;;;;;;;;;;;;;;;5137581;27;19948;-69
2023/02/20 04:10:30;;;;;;;;;;;;;;;;;;5136742;27;19985;-69
2023/02/20 04:12:56;;;;;;;;;;;;;;;;;;5137125;27;20037;-68
2023/02/20 04:15:22;;;;;;;;;;;;;;;;;;5136856;27;20394;-69
2023/02/20 04:17:48;;;;;;;;;;;;;;;;;;5136814;27;19944;-70
2023/02/20 04:20:14;;;;;;;;;;;;;;;;;;5136756;27;19953;-68
2023/02/20 04:22:40;;;;;;;;;;;;;;;;;;5136720;27;19947;-69
2023/02/20 04:25:06;;;;;;;;;;;;;;;;;;5136885;27;19979;-69
2023/02/20 04:27:32;;;;;;;;;;;;;;;;;;5137237;27;20000;-69
2023/02/20 04:29:58;;;;;;;;;;;;;;;;;;5136575;27;19995;-69
2023/02/20 04:32:23;;;;;;;;;;;;;;;;;;5136835;27;20015;-69
2023/02/20 04:34:49;;;;;;;;;;;;;;;;;;5136766;27;20389;-70
2023/02/20 04:37:15;;;;;;;;;;;;;;;;;;5137038;27;19953;-69
2023/02/20 04:39:41;;;;;;;;;;;;;;;;;;5136386;27;20033;-68
2023/02/20 04:42:07;;;;;;;;;;;;;;;;;;5136695;27;19949;-69
2023/02/20 04:44:34;;;;;;;;;;;;;;;;;;5136259;27;19959;-69
2023/02/20 04:47:00;;;;;;;;;;;;;;;;;;5136256;27;20038;-69
2023/02/20 04:49:26;;;;;;;;;;;;;;;;;;5136216;27;19955;-70
2023/02/20 04:51:52;;;;;;;;;;;;;;;;;;5136736;27;20442;-70
2023/02/20 04:54:17;;;;;;;;;;;;;;;;;;5136385;27;19986;-69
2023/02/20 04:56:43;;;;;;;;;;;;;;;;;;5136627;27;19967;-69
2023/02/20 04:59:10;;;;;;;;;;;;;;;;;;5135969;27;20314;-69
2023/02/20 05:01:36;;;;;;;;;;;;;;;;;;5117276;27;19954;-69
2023/02/20 05:04:02;;;;;;;;;;;;;;;;;;5135114;27;20395;-69
2023/02/20 05:06:28;;;;;;;;;;;;;;;;;;5135744;27;19971;-69
2023/02/20 05:08:54;;;;;;;;;;;;;;;;;;5136097;27;19950;-69
2023/02/20 05:11:20;;;;;;;;;;;;;;;;;;5135515;27;19983;-69
2023/02/20 05:13:46;;;;;;;;;;;;;;;;;;5135679;27;19977;-69
2023/02/20 05:16:12;;;;;;;;;;;;;;;;;;5135935;27;19951;-69
2023/02/20 05:18:38;;;;;;;;;;;;;;;;;;5136447;27;19977;-69
2023/02/20 05:23:48;;;;;;;;;;;;;;;;;;5135270;27;20422;-69
2023/02/20 05:26:14;;;;;;;;;;;;;;;;;;5135679;27;19972;-69
2023/02/20 05:28:40;;;;;;;;;;;;;;;;;;5135405;27;19945;-69
2023/02/20 05:31:06;;;;;;;;;;;;;;;;;;5135373;27;19951;-70
2023/02/20 05:33:32;;;;;;;;;;;;;;;;;;5135357;27;20041;-69
2023/02/20 05:35:58;;;;;;;;;;;;;;;;;;5135905;27;20036;-69
2023/02/20 05:38:24;;;;;;;;;;;;;;;;;;5136108;27;20403;-69
2023/02/20 05:40:50;;;;;;;;;;;;;;;;;;5135545;27;19957;-70
2023/02/20 05:43:15;;;;;;;;;;;;;;;;;;5135177;27;20369;-69
2023/02/20 05:45:41;;;;;;;;;;;;;;;;;;5135075;27;19978;-69
2023/02/20 05:48:07;;;;;;;;;;;;;;;;;;5135100;27;19949;-69
2023/02/20 05:50:33;;;;;;;;;;;;;;;;;;5135077;27;19986;-69
2023/02/20 05:52:59;;;;;;;;;;;;;;;;;;5135306;27;19972;-69
2023/02/20 05:55:25;;;;;;;;;;;;;;;;;;5135264;27;19950;-68
2023/02/20 05:57:51;;;;;;;;;;;;;;;;;;5134977;27;19949;-69
2023/02/20 06:00:17;;;;;;;;;;;;;;;;;;5134995;27;19949;-69
2023/02/20 06:02:42;;;;;;;;;;;;;;;;;;5134906;27;20003;-69
2023/02/20 06:05:08;;;;;;;;;;;;;;;;;;5134800;27;19965;-69
2023/02/20 06:07:34;;;;;;;;;;;;;;;;;;5135098;27;19956;-69
2023/02/20 06:10:00;;;;;;;;;;;;;;;;;;5134561;27;20051;-70
2023/02/20 06:12:26;;;;;;;;;;;;;;;;;;5134759;27;19950;-69
2023/02/20 06:14:52;;;;;;;;;;;;;;;;;;5134334;27;19966;-69
2023/02/20 06:17:18;;;;;;;;;;;;;;;;;;5134726;27;19987;-69
2023/02/20 06:19:44;;;;;;;;;;;;;;;;;;5135057;27;20000;-69
2023/02/20 06:22:09;;;;;;;;;;;;;;;;;;5134665;28;20465;-69
2023/02/20 06:24:35;;;;;;;;;;;;;;;;;;5134594;28;19947;-70
2023/02/20 06:27:01;;;;;;;;;;;;;;;;;;5135171;28;20403;-69
2023/02/20 06:29:28;;;;;;;;;;;;;;;;;;5134623;28;19951;-70
2023/02/20 06:31:54;;;;;;;;;;;;;;;;;;5134583;28;19956;-70
2023/02/20 06:34:20;;;;;;;;;;;;;;;;;;5135121;28;20291;-69
2023/02/20 06:36:46;;;;;;;;;;;;;;;;;;5134821;28;19998;-69
2023/02/20 06:39:11;;;;;;;;;;;;;;;;;;5134789;28;20324;-69
2023/02/20 06:41:37;;;;;;;;;;;;;;;;;;5134501;28;19952;-69
2023/02/20 06:44:04;;;;;;;;;;;;;;;;;;5134757;28;19993;-69
2023/02/20 06:46:30;;;;;;;;;;;;;;;;;;5134378;28;19995;-69
2023/02/20 06:48:56;;;;;;;;;;;;;;;;;;5134725;28;19949;-69
2023/02/20 06:51:22;;;;;;;;;;;;;;;;;;5134635;28;20307;-70
2023/02/20 06:53:48;;;;;;;;;;;;;;;;;;5134657;28;20435;-69
2023/02/20 06:56:14;;;;;;;;;;;;;;;;;;5134323;28;20067;-68
2023/02/20 06:58:40;;;;;;;;;;;;;;;;;;5134351;28;19991;-69
2023/02/20 07:01:06;;;;;;;;;;;;;;;;;;5134564;28;19955;-70
2023/02/20 07:03:32;;;;;;;;;;;;;;;;;;5134291;28;19989;-69
2023/02/20 07:05:58;;;;;;;;;;;;;;;;;;5134468;28;19970;-69
2023/02/20 07:08:24;;;;;;;;;;;;;;;;;;5134504;28;20382;-69
2023/02/20 07:10:50;;;;;;;;;;;;;;;;;;5134246;28;19982;-69
2023/02/20 07:13:16;;;;;;;;;;;;;;;;;;5134123;28;19983;-69
2023/02/20 07:15:42;;;;;;;;;;;;;;;;;;5134156;28;19951;-70
2023/02/20 07:18:07;;;;;;;;;;;;;;;;;;5134465;28;20022;-69
2023/02/20 07:20:33;;;;;;;;;;;;;;;;;;5134100;28;20040;-68
2023/02/20 07:22:59;;;;;;;;;;;;;;;;;;5134384;28;19954;-70
2023/02/20 07:25:25;;;;;;;;;;;;;;;;;;5134567;28;20424;-69
2023/02/20 07:27:51;;;;;;;;;;;;;;;;;;5135492;27;19954;-69
2023/02/20 07:30:17;;;;;;;;;;;;;;;;;;5138026;27;20038;-70
2023/02/20 07:32:43;;;;;;;;;;;;;;;;;;5137994;27;20383;-68
2023/02/20 07:35:09;;;;;;;;;;;;;;;;;;5138216;27;19946;-69
2023/02/20 07:37:34;;;;;;;;;;;;;;;;;;5137627;27;20402;-69
2023/02/20 07:40:00;;;;;;;;;;;;;;;;;;5137593;27;20043;-69
2023/02/20 07:42:26;;;;;;;;;;;;;;;;;;5137787;27;20360;-69
2023/02/20 07:44:52;;;;;;;;;;;;;;;;;;5137403;27;19965;-69
2023/02/20 07:47:18;;;;;;;;;;;;;;;;;;5137710;27;19997;-69
2023/02/20 07:49:44;;;;;;;;;;;;;;;;;;5137384;27;20424;-69
2023/02/20 07:52:10;;;;;;;;;;;;;;;;;;5137373;27;19958;-69
2023/02/20 07:54:36;;;;;;;;;;;;;;;;;;5137577;27;19953;-70
2023/02/20 07:57:02;;;;;;;;;;;;;;;;;;5137267;27;19952;-69
2023/02/20 07:59:27;;;;;;;;;;;;;;;;;;5137495;27;20033;-69
2023/02/20 08:01:53;;;;;;;;;;;;;;;;;;5137135;27;20388;-69
2023/02/20 08:04:19;;;;;;;;;;;;;;;;;;5137095;27;19951;-68
2023/02/20 08:06:45;;;;;;;;;;;;;;;;;;5137523;27;20319;-69
2023/02/20 08:09:12;;;;;;;;;;;;;;;;;;5137272;27;19950;-69
2023/02/20 08:11:38;;;;;;;;;;;;;;;;;;5117992;27;19987;-70
2023/02/20 08:14:04;;;;;;;;;;;;;;;;;;5137012;27;19970;-69
2023/02/20 08:16:30;;;;;;;;;;;;;;;;;;5137547;27;19950;-69
2023/02/20 08:18:56;;;;;;;;;;;;;;;;;;5137111;27;19948;-69
2023/02/20 08:21:22;;;;;;;;;;;;;;;;;;5136737;27;20324;-69
2023/02/20 08:23:47;;;;;;;;;;;;;;;;;;5137449;27;19945;-70
2023/02/20 08:26:13;;;;;;;;;;;;;;;;;;5137235;27;19970;-68
2023/02/20 08:28:39;;;;;;;;;;;;;;;;;;5136706;27;20044;-68
2023/02/20 08:31:05;;;;;;;;;;;;;;;;;;5136860;27;19946;-70
2023/02/20 08:33:31;;;;;;;;;;;;;;;;;;5136583;27;19951;-69
2023/02/20 08:35:57;;;;;;;;;;;;;;;;;;5136757;27;20004;-70
2023/02/20 08:38:23;;;;;;;;;;;;;;;;;;5136444;27;19946;-76
2023/02/20 08:40:49;;;;;;;;;;;;;;;;;;5117977;27;20460;-77
2023/02/20 08:43:15;;;;;;;;;;;;;;;;;;5136335;27;19953;-72
2023/02/20 08:45:40;;;;;;;;;;;;;;;;;;5136398;27;20306;-69
2023/02/20 08:48:06;;;;;;;;;;;;;;;;;;5136550;27;20005;-70
2023/02/20 08:50:32;;;;;;;;;;;;;;;;;;5135367;27;19951;-69
2023/02/20 08:52:59;;;;;;;;;;;;;;;;;;5133759;27;19949;-68
2023/02/20 08:55:24;;;;;;;;;;;;;;;;;;5136153;27;20411;-73
2023/02/20 08:57:50;;;;;;;;;;;;;;;;;;5136414;27;19951;-70
2023/02/20 09:00:17;;;;;;;;;;;;;;;;;;5135983;27;19997;-73
2023/02/20 09:02:43;;;;;;;;;;;;;;;;;;5136223;27;19977;-73
2023/02/20 09:05:09;;;;;;;;;;;;;;;;;;5136138;27;20006;-71
2023/02/20 09:07:35;;;;;;;;;;;;;;;;;;5136321;27;20347;-74
2023/02/20 09:10:01;;;;;;;;;;;;;;;;;;5136126;27;19983;-72
2023/02/20 09:12:27;;;;;;;;;;;;;;;;;;5136202;27;20356;-71
2023/02/20 09:14:53;;;;;;;;;;;;;;;;;;5135631;27;19960;-73
2023/02/20 09:17:19;;;;;;;;;;;;;;;;;;5135911;27;19948;-72
2023/02/20 09:19:46;;;;;;;;;;;;;;;;;;5135519;27;19951;-74
2023/02/20 09:22:12;;;;;;;;;;;;;;;;;;5136234;27;20378;-72
2023/02/20 09:24:38;;;;;;;;;;;;;;;;;;5135258;27;19989;-72
2023/02/20 09:27:05;;;;;;;;;;;;;;;;;;5135298;27;20322;-72
2023/02/20 09:29:31;;;;;;;;;;;;;;;;;;5135966;27;19952;-73
2023/02/20 09:31:57;;;;;;;;;;;;;;;;;;5115463;27;19983;-71
2023/02/20 09:34:23;;;;;;;;;;;;;;;;;;5134904;27;20030;-71
2023/02/20 09:36:49;;;;;;;;;;;;;;;;;;5135083;27;19949;-72
2023/02/20 09:39:16;;;;;;;;;;;;;;;;;;5134907;27;19992;-72
2023/02/20 09:41:42;;;;;;;;;;;;;;;;;;5135210;27;19948;-73
2023/02/20 09:44:08;;;;;;;;;;;;;;;;;;5134952;27;19950;-71
2023/02/20 09:46:34;;;;;;;;;;;;;;;;;;5135661;27;19993;-71
2023/02/20 09:49:00;;;;;;;;;;;;;;;;;;5135325;27;19987;-70
2023/02/20 09:51:26;;;;;;;;;;;;;;;;;;5134716;27;20394;-75
2023/02/20 09:53:52;;;;;;;;;;;;;;;;;;5135321;27;19996;-73
2023/02/20 09:56:17;;;;;;;;;;;;;;;;;;5134996;27;20441;-70
2023/02/20 09:58:43;;;;;;;;;;;;;;;;;;5135573;27;20280;-71
2023/02/20 10:01:09;;;;;;;;;;;;;;;;;;5135259;27;19957;-74
2023/02/20 10:03:36;;;;;;;;;;;;;;;;;;5134959;27;20071;-71
2023/02/20 10:06:02;;;;;;;;;;;;;;;;;;5135056;27;20015;-73
2023/02/20 10:08:28;;;;;;;;;;;;;;;;;;5134853;27;19977;-70
2023/02/20 10:10:53;;;;;;;;;;;;;;;;;;5134728;27;19985;-71
2023/02/20 10:13:19;;;;;;;;;;;;;;;;;;5135169;27;19963;-73
2023/02/20 10:15:45;;;;;;;;;;;;;;;;;;5134779;27;19999;-72
2023/02/20 10:18:11;;;;;;;;;;;;;;;;;;5134766;27;20479;-71
2023/02/20 10:20:37;;;;;;;;;;;;;;;;;;5135282;27;20282;-72
2023/02/20 10:23:03;;;;;;;;;;;;;;;;;;5134920;28;20050;-73
2023/02/20 10:25:29;;;;;;;;;;;;;;;;;;5134624;28;19962;-72
2023/02/20 10:27:55;;;;;;;;;;;;;;;;;;5134912;28;19983;-72
2023/02/20 10:30:21;;;;;;;;;;;;;;;;;;5135235;28;19952;-70
2023/02/20 10:32:47;;;;;;;;;;;;;;;;;;5134886;28;19952;-69
2023/02/20 10:35:13;;;;;;;;;;;;;;;;;;5134551;28;19951;-71
2023/02/20 10:37:39;;;;;;;;;;;;;;;;;;5134483;28;19972;-71
2023/02/20 10:40:05;;;;;;;;;;;;;;;;;;5134430;28;20038;-72
2023/02/20 10:42:31;;;;;;;;;;;;;;;;;;5134449;28;19949;-72
2023/02/20 10:44:57;;;;;;;;;;;;;;;;;;5134631;28;19982;-70
2023/02/20 10:47:23;;;;;;;;;;;;;;;;;;5134339;28;20314;-72
2023/02/20 10:49:50;;;;;;;;;;;;;;;;;;5134993;28;19956;-73
2023/02/20 10:52:16;;;;;;;;;;;;;;;;;;5134442;28;20403;-71
2023/02/20 10:54:43;;;;;;;;;;;;;;;;;;5134928;28;20002;-71
2023/02/20 10:57:09;;;;;;;;;;;;;;;;;;5134411;28;19949;-72
2023/02/20 10:59:35;;;;;;;;;;;;;;;;;;5134368;28;20048;-75
2023/02/20 11:02:01;;;;;;;;;;;;;;;;;;5136177;27;19952;-71
2023/02/20 11:04:27;;;;;;;;;;;;;;;;;;5138298;27;20444;-71
2023/02/20 11:06:52;;;;;;;;;;;;;;;;;;5138206;27;20011;-70
2023/02/20 11:09:19;;;;;;;;;;;;;;;;;;5138095;27;19950;-72
2023/02/20 11:11:44;;;;;;;;;;;;;;;;;;5137900;27;20475;-73
2023/02/20 11:14:10;;;;;;;;;;;;;;;;;;5138043;27;20019;-72
2023/02/20 11:16:36;;;;;;;;;;;;;;;;;;5138360;27;19949;-72
2023/02/20 11:19:02;;;;;;;;;;;;;;;;;;5138001;27;19998;-71
2023/02/20 11:21:28;;;;;;;;;;;;;;;;;;5137960;27;20383;-72
2023/02/20 11:23:54;;;;;;;;;;;;;;;;;;5138519;27;20041;-73
2023/02/20 11:26:20;;;;;;;;;;;;;;;;;;5137800;27;19977;-72
2023/02/20 11:28:46;;;;;;;;;;;;;;;;;;5137877;27;19997;-70
2023/02/20 11:31:12;;;;;;;;;;;;;;;;;;5138339;27;19949;-74
2023/02/20 11:33:38;;;;;;;;;;;;;;;;;;5137766;27;19949;-72
2023/02/20 11:36:04;;;;;;;;;;;;;;;;;;5137738;27;19997;-71
2023/02/20 11:38:30;;;;;;;;;;;;;;;;;;5137628;27;19946;-72
2023/02/20 11:40:59;;;;;;;;;;;;;;;;;;5137631;27;20045;-72
2023/02/20 11:43:25;;;;;;;;;;;;;;;;;;5120064;27;19961;-73
2023/02/20 11:45:53;;;;;;;;;;;;;;;;;;5137718;27;19962;-70
2023/02/20 11:48:19;;;;;;;;;;;;;;;;;;5137781;27;19950;-73
2023/02/20 11:50:45;;;;;;;;;;;;;;;;;;5137422;27;20344;-72
2023/02/20 11:53:11;;;;;;;;;;;;;;;;;;5137399;27;19951;-72
2023/02/20 11:55:36;;;;;;;;;;;;;;;;;;5137266;27;19958;-73
2023/02/20 11:58:02;;;;;;;;;;;;;;;;;;5137271;27;19943;-71
2023/02/20 12:00:28;;;;;;;;;;;;;;;;;;5137536;27;19973;-72
2023/02/20 12:02:54;;;;;;;;;;;;;;;;;;5137178;27;19999;-72
2023/02/20 12:05:20;;;;;;;;;;;;;;;;;;5137666;27;20419;-72
2023/02/20 12:07:46;;;;;;;;;;;;;;;;;;5137408;27;19953;-71
2023/02/20 12:10:12;;;;;;;;;;;;;;;;;;5136891;27;19993;-72
2023/02/20 12:12:38;;;;;;;;;;;;;;;;;;5137339;27;20283;-72
2023/02/20 12:15:04;;;;;;;;;;;;;;;;;;5136552;27;20102;-71
2023/02/20 12:17:30;;;;;;;;;;;;;;;;;;5136876;27;19951;-70
2023/02/20 12:19:55;;;;;;;;;;;;;;;;;;5136834;27;19957;-70
2023/02/20 12:22:21;;;;;;;;;;;;;;;;;;5136850;27;20057;-71
2023/02/20 12:24:48;;;;;;;;;;;;;;;;;;5136997;27;19951;-73
2023/02/20 12:27:14;;;;;;;;;;;;;;;;;;5136941;27;19994;-72
2023/02/20 12:29:40;;;;;;;;;;;;;;;;;;5137255;27;20316;-72
2023/02/20 12:32:06;;;;;;;;;;;;;;;;;;5117952;27;19956;-70
2023/02/20 12:34:32;;;;;;;;;;;;;;;;;;5137034;27;20429;-70
2023/02/20 12:36:58;;;;;;;;;;;;;;;;;;5136792;27;19946;-71
2023/02/20 12:39:24;;;;;;;;;;;;;;;;;;5136473;27;20366;-73
2023/02/20 12:41:50;;;;;;;;;;;;;;;;;;5136702;27;19947;-71
2023/02/20 12:44:16;;;;;;;;;;;;;;;;;;5136360;27;20052;-71
2023/02/20 12:46:42;;;;;;;;;;;;;;;;;;5136234;27;20070;-74
2023/02/20 12:49:08;;;;;;;;;;;;;;;;;;5136563;27;19949;-74
2023/02/20 12:51:34;;;;;;;;;;;;;;;;;;5136216;27;19958;-73
2023/02/20 12:54:00;;;;;;;;;;;;;;;;;;5136736;27;20348;-72
2023/02/20 12:56:26;;;;;;;;;;;;;;;;;;5136427;27;19950;-72
2023/02/20 12:58:52;;;;;;;;;;;;;;;;;;5136081;27;19949;-72
2023/02/20 13:01:17;;;;;;;;;;;;;;;;;;5136291;27;19950;-72
2023/02/20 13:03:43;;;;;;;;;;;;;;;;;;5135974;27;19942;-72
2023/02/20 13:06:09;;;;;;;;;;;;;;;;;;5136176;27;20099;-72
2023/02/20 13:08:35;;;;;;;;;;;;;;;;;;5135891;27;19996;-73
2023/02/20 13:11:01;;;;;;;;;;;;;;;;;;5135720;27;20006;-72
2023/02/20 13:13:27;;;;;;;;;;;;;;;;;;5136147;27;19969;-71
2023/02/20 13:15:53;;;;;;;;;;;;;;;;;;5135759;27;19958;-71
2023/02/20 13:18:20;;;;;;;;;;;;;;;;;;5135712;27;20324;-73
2023/02/20 13:20:46;;;;;;;;;;;;;;;;;;5117190;27;19955;-71
2023/02/20 13:23:12;;;;;;;;;;;;;;;;;;5135598;27;19946;-71
2023/02/20 13:25:40;;;;;;;;;;;;;;;;;;5134568;27;20326;-73
2023/02/20 13:28:06;;;;;;;;;;;;;;;;;;5117117;27;19948;-71
2023/02/20 13:30:33;;;;;;;;;;;;;;;;;;5135472;27;19955;-71
2023/02/20 13:32:58;;;;;;;;;;;;;;;;;;5135684;27;20374;-70
2023/02/20 13:35:24;;;;;;;;;;;;;;;;;;5135990;27;19984;-70
2023/02/20 13:37:51;;;;;;;;;;;;;;;;;;5135342;27;19951;-71
2023/02/20 13:40:17;;;;;;;;;;;;;;;;;;5136043;27;19959;-70
2023/02/20 13:42:43;;;;;;;;;;;;;;;;;;5135574;27;19954;-72
2023/02/20 13:45:09;;;;;;;;;;;;;;;;;;5135933;27;20469;-72
2023/02/20 13:47:36;;;;;;;;;;;;;;;;;;5135480;27;19957;-69
2023/02/20 13:50:03;;;;;;;;;;;;;;;;;;5135070;27;20320;-73
2023/02/20 13:52:29;;;;;;;;;;;;;;;;;;5135139;27;19949;-70
2023/02/20 13:54:54;;;;;;;;;;;;;;;;;;5135355;27;19952;-70
2023/02/20 13:57:22;;;;;;;;;;;;;;;;;;5135000;27;19956;-71
2023/02/20 13:59:49;;;;;;;;;;;;;;;;;;5135581;27;20060;-71
2023/02/20 14:02:16;;;;;;;;;;;;;;;;;;5116331;27;19958;-71
2023/02/20 14:04:42;;;;;;;;;;;;;;;;;;5135178;27;19947;-72
2023/02/20 14:07:08;;;;;;;;;;;;;;;;;;5134926;27;19951;-72
2023/02/20 14:09:34;;;;;;;;;;;;;;;;;;5134647;27;19950;-73
2023/02/20 14:12:02;;;;;;;;;;;;;;;;;;5135407;27;19969;-70
2023/02/20 14:14:28;;;;;;;;;;;;;;;;;;5116291;27;19969;-70
2023/02/20 14:16:54;;;;;;;;;;;;;;;;;;5135026;27;19955;-71
2023/02/20 14:19:20;;;;;;;;;;;;;;;;;;5134731;27;20044;-71
2023/02/20 14:21:46;;;;;;;;;;;;;;;;;;5135029;27;19952;-72
2023/02/20 14:24:12;;;;;;;;;;;;;;;;;;5134665;28;20467;-70
2023/02/20 14:26:38;;;;;;;;;;;;;;;;;;5134586;28;20023;-72
2023/02/20 14:29:04;;;;;;;;;;;;;;;;;;5135178;28;20292;-70
2023/02/20 14:31:30;;;;;;;;;;;;;;;;;;5134965;28;19951;-72
2023/02/20 14:33:57;;;;;;;;;;;;;;;;;;5134596;28;20635;-73
2023/02/20 14:36:22;;;;;;;;;;;;;;;;;;5135970;27;20068;-71
2023/02/20 14:38:48;;;;;;;;;;;;;;;;;;5138843;27;20417;-71
2023/02/20 14:41:14;;;;;;;;;;;;;;;;;;5139063;27;19975;-71
2023/02/20 14:43:40;;;;;;;;;;;;;;;;;;5138748;27;19990;-72
2023/02/20 14:46:06;;;;;;;;;;;;;;;;;;5138910;27;20026;-72
2023/02/20 14:48:32;;;;;;;;;;;;;;;;;;5138617;27;19949;-72
2023/02/20 14:50:58;;;;;;;;;;;;;;;;;;5139118;27;19950;-70
2023/02/20 14:53:24;;;;;;;;;;;;;;;;;;5138804;27;19953;-72
2023/02/20 14:55:50;;;;;;;;;;;;;;;;;;5138506;27;19946;-70
2023/02/20 14:58:16;;;;;;;;;;;;;;;;;;5138420;27;20027;-71
2023/02/20 15:00:42;;;;;;;;;;;;;;;;;;5138947;27;19951;-71
2023/02/20 15:03:08;;;;;;;;;;;;;;;;;;5138638;27;19951;-69
2023/02/20 15:05:34;;;;;;;;;;;;;;;;;;5138246;27;19969;-71
2023/02/20 15:08:00;;;;;;;;;;;;;;;;;;5138578;27;19943;-71
2023/02/20 15:10:26;;;;;;;;;;;;;;;;;;5138200;27;20466;-70
2023/02/20 15:12:52;;;;;;;;;;;;;;;;;;5138149;27;19972;-74
2023/02/20 15:15:18;;;;;;;;;;;;;;;;;;5138063;27;19965;-72
2023/02/20 15:17:44;;;;;;;;;;;;;;;;;;5138371;27;20036;-69
2023/02/20 15:20:10;;;;;;;;;;;;;;;;;;5138327;27;19943;-72
2023/02/20 15:22:36;;;;;;;;;;;;;;;;;;5138526;27;19949;-72
2023/02/20 15:25:02;;;;;;;;;;;;;;;;;;5137796;27;20421;-72
2023/02/20 15:27:32;;;;;;;;;;;;;;;;;;5138466;27;19951;-69
2023/02/20 15:29:57;;;;;;;;;;;;;;;;;;5137830;27;19950;-71
2023/02/20 15:32:23;;;;;;;;;;;;;;;;;;5138057;27;19950;-72
2023/02/20 15:34:49;;;;;;;;;;;;;;;;;;5138069;27;19983;-72
2023/02/20 15:37:15;;;;;;;;;;;;;;;;;;5138297;27;20029;-72
2023/02/20 15:39:43;;;;;;;;;;;;;;;;;;5137979;27;19950;-70
2023/02/20 15:42:09;;;;;;;;;;;;;;;;;;5138232;27;20386;-70
2023/02/20 15:44:35;;;;;;;;;;;;;;;;;;5137595;27;19941;-73
2023/02/20 15:47:01;;;;;;;;;;;;;;;;;;5137738;27;19978;-72
2023/02/20 15:49:27;;;;;;;;;;;;;;;;;;5136735;27;20016;-70
2023/02/20 15:51:53;;;;;;;;;;;;;;;;;;5137444;27;20397;-72
2023/02/20 15:54:19;;;;;;;;;;;;;;;;;;5137659;27;19950;-69
2023/02/20 15:56:46;;;;;;;;;;;;;;;;;;5137353;27;20463;-72
2023/02/20 15:59:12;;;;;;;;;;;;;;;;;;5118833;27;20114;-71
2023/02/20 16:01:38;;;;;;;;;;;;;;;;;;5137226;27;20032;-72
2023/02/20 16:04:03;;;;;;;;;;;;;;;;;;5137196;27;19993;-72
2023/02/20 16:06:29;;;;;;;;;;;;;;;;;;5137352;27;20061;-70
2023/02/20 16:08:55;;;;;;;;;;;;;;;;;;5137103;27;19942;-72
2023/02/20 16:11:21;;;;;;;;;;;;;;;;;;5136797;27;20512;-70
2023/02/20 16:13:47;;;;;;;;;;;;;;;;;;5136952;27;19969;-71
2023/02/20 16:16:13;;;;;;;;;;;;;;;;;;5137256;27;20030;-70
2023/02/20 16:18:39;;;;;;;;;;;;;;;;;;5136819;27;19947;-72
2023/02/20 16:21:05;;;;;;;;;;;;;;;;;;5137155;27;19954;-73
2023/02/20 16:23:32;;;;;;;;;;;;;;;;;;5136842;27;19989;-72
2023/02/20 16:25:58;;;;;;;;;;;;;;;;;;5136700;27;19969;-70
2023/02/20 16:28:24;;;;;;;;;;;;;;;;;;5136751;27;19998;-70
2023/02/20 16:30:50;;;;;;;;;;;;;;;;;;5136941;27;19943;-71
2023/02/20 16:33:15;;;;;;;;;;;;;;;;;;5136913;27;19949;-73
2023/02/20 16:35:41;;;;;;;;;;;;;;;;;;5137161;27;20040;-70
2023/02/20 16:38:07;;;;;;;;;;;;;;;;;;5136515;27;19953;-70
2023/02/20 16:40:33;;;;;;;;;;;;;;;;;;5137058;27;19942;-71
2023/02/20 16:42:59;;;;;;;;;;;;;;;;;;5136962;27;20459;-69
2023/02/20 16:45:25;;;;;;;;;;;;;;;;;;5136287;27;19970;-72
2023/02/20 16:47:51;;;;;;;;;;;;;;;;;;5136345;27;20033;-72
2023/02/20 16:50:19;;;;;;;;;;;;;;;;;;5136281;27;20403;-71